Mehrere Warnungen in Kraft   Mehr Informationen

Nearby METAR Reports

 

LEZL - Sevilla, Spain
Distance from station: ONO 8km
aktuell: 23/09/2021 04:00
klar
klar
 Wind von NO
Wind: NO 7 km/h
Temperatur: 20°C
Taupunkt: 16°C
Luftfeuchte: 78%
Luftdruck: 1012 hPa
Zusammenfassung: klar
Visibility: greater than 10 km
2021/09/23 02:00 LEZL 230200Z AUTO 05004KT CAVOK 20/16 Q1012
LEMO - Morón, Spain
Distance from station: SO 43km
aktuell: 23/09/2021 04:00
klar
klar
 Wind von N
Wind: N 4 km/h
Temperatur: 18°C
Taupunkt: 16°C
Luftfeuchte: 88%
Luftdruck: 1012 hPa
Zusammenfassung: klar
Visibility: greater than 10 km
2021/09/23 02:00 LEMO 230200Z 01002KT CAVOK 18/16 Q1012 NOSIG
LEJR - Jeréz, Spain
Distance from station: S 71km
aktuell: 23/09/2021 04:00
Few Clouds
Few Clouds
 Wind von varies
Wind: varies 2 km/h
Temperatur: 19°C
Taupunkt: 17°C
Luftfeuchte: 88%
Luftdruck: 1012 hPa
Clouds: Few Clouds
Visibility: 10 km
Cloud details: Few Clouds 2073 m
2021/09/23 02:00 LEJR 230200Z AUTO VRB01KT 9999 FEW068 19/17 Q1012
 
LERT - Rota, Spain
Distance from station: SSW 89km
aktuell: 23/09/2021 04:00
stark bewölkt
stark bewölkt
 Wind von OSO
Wind: OSO 17 km/h
Temperatur: 23°C
Taupunkt: 18°C
Luftfeuchte: 74%
Luftdruck: 1012 hPa
Clouds: stark bewölkt
Visibility: 9 km
Cloud details: stark bewölkt 914 m
2021/09/23 02:00 LERT 230200Z 11009KT 9000 BKN030 23/18 Q1012 NOSIG
LEMG - Málaga, Spain
Distance from station: OSO 157km
aktuell: 23/09/2021 04:00
geschlossene Wolkendecke
geschlossene Wolkendecke
 Wind von SO
Wind: SO 11 km/h
Temperatur: 22°C
Taupunkt: 20°C
Luftfeuchte: 88%
Luftdruck: 1014 hPa
Clouds: geschlossene Wolkendecke
Visibility: 10 km
Cloud details: stark bewölkt 457 m
geschlossene Wolkendecke 671 m
2021/09/23 02:00 LEMG 230200Z 14006KT 110V180 9999 BKN015 OVC022 22/20 Q1014 NOSIG
LEBA - Córdoba, Spain
Distance from station: ONO 115km
aktuell: 23/09/2021 04:00
klar
klar
 Wind von calm
Wind: Windstill
Temperatur: 19°C
Taupunkt: 15°C
Luftfeuchte: 78%
Luftdruck: 1014 hPa
Zusammenfassung: klar
Visibility: greater than 10 km
2021/09/23 02:00 LEBA 230200Z AUTO 00000KT CAVOK 19/15 Q1014
 
LEGR - Granada, Spain
Distance from station: O 198km
aktuell: 23/09/2021 04:00
klar
klar
 Wind von calm
Wind: Windstill
Temperatur: 16°C
Taupunkt: 14°C
Luftfeuchte: 88%
Luftdruck: 1016 hPa
Zusammenfassung: klar
Visibility: greater than 10 km
2021/09/23 02:00 LEGR 230200Z AUTO 00000KT CAVOK 16/14 Q1016
LEAM - Almería, Spain
Distance from station: O 326km
aktuell: 23/09/2021 04:00
klar
klar
 Wind von N
Wind: N 9 km/h
Temperatur: 22°C
Taupunkt: 17°C
Luftfeuchte: 73%
Luftdruck: 1014 hPa
Zusammenfassung: klar
Visibility: greater than 10 km
2021/09/23 02:00 LEAM 230200Z AUTO 35005KT 300V030 CAVOK 22/17 Q1014
LEMD - Madrid/Barajas, Spain
Distance from station: NNO 402km
aktuell: 23/09/2021 04:00
teilweise bewölkt
teilweise bewölkt
 Wind von NNW
Wind: NNW 11 km/h
Temperatur: 15°C
Taupunkt: 13°C
Luftfeuchte: 88%
Luftdruck: 1019 hPa
Clouds: teilweise bewölkt
Visibility: 10 km
Cloud details: teilweise bewölkt 1372 m
teilweise bewölkt 1524 m
2021/09/23 02:00 LEMD 230200Z 33006KT 9999 SCT045 SCT050 15/13 Q1019 NOSIG
 
LEVD - Valladolid, Spain
Distance from station: N 492km
aktuell: 23/09/2021 04:00
klar
klar
 Wind von ONO
Wind: ONO 19 km/h
Temperatur: 12°C
Taupunkt: 9°C
Luftfeuchte: 82%
Luftdruck: 1020 hPa
Zusammenfassung: klar
Visibility: greater than 10 km
2021/09/23 02:00 LEVD 230200Z AUTO 07010KT CAVOK 12/09 Q1020
LEBL - Barcelona, Spain
Distance from station: NO 816km
aktuell: 23/09/2021 04:00
Few Clouds
Few Clouds
 Wind von NW
Wind: NW 13 km/h
Temperatur: 19°C
Taupunkt: 12°C
Luftfeuchte: 64%
Luftdruck: 1018 hPa
Clouds: Few Clouds
Visibility: 10 km
Cloud details: Few Clouds 1219 m
2021/09/23 02:00 LEBL 230200Z 32007KT 9999 FEW040 19/12 Q1018 NOSIG
LEVC - Valencia, Spain
Distance from station: ONO 535km
aktuell: 23/09/2021 04:00
Few Clouds
Few Clouds
 Wind von W
Wind: W 9 km/h
Temperatur: 20°C
Taupunkt: 17°C
Luftfeuchte: 83%
Luftdruck: 1017 hPa
Clouds: Few Clouds
Visibility: 10 km
Cloud details: teilweise bewölkt 671 m
Few Clouds 914 m
2021/09/23 02:00 LEVC 230200Z 26005KT 9999 SCT022 FEW030CB 20/17 Q1017 NOSIG